Time;durP1;ratioP1;P1;durP2;ratioP2;P2;SDS_P1;SDS_P2;PMS_P1;PMS_P2;Temp;Humidity;BMP_temperature;BMP_pressure;BME280_temperature;BME280_humidity;BME280_pressure;Samples;Min_cycle;Max_cycle;Signal;HPM_P1;HPM_P2
2024/04/19 00:01:23;;;;;;;1.25;0.60;;;14.20;84.90;;;;;;5145950;27;20000;-80
2024/04/19 00:03:49;;;;;;;1.30;0.60;;;14.20;85.00;;;;;;5147076;27;20008;-81
2024/04/19 00:06:14;;;;;;;1.38;0.68;;;14.10;85.00;;;;;;5147556;27;20000;-81
2024/04/19 00:08:40;;;;;;;1.52;0.90;;;14.10;84.90;;;;;;5175869;27;20004;-81
2024/04/19 00:11:05;;;;;;;1.95;0.60;;;14.10;85.00;;;;;;5175444;27;20015;-81
2024/04/19 00:13:31;;;;;;;1.10;0.60;;;14.20;85.00;;;;;;5174048;27;20004;-80
2024/04/19 00:15:57;;;;;;;1.27;0.50;;;14.20;84.90;;;;;;5173906;27;20072;-80
2024/04/19 00:18:27;;;;;;;1.38;0.65;;;14.10;84.90;;;;;;5173730;27;20004;-80
2024/04/19 00:20:54;;;;;;;1.58;0.70;;;14.00;84.70;;;;;;5175510;27;20088;-81
2024/04/19 00:23:20;;;;;;;0.95;0.60;;;14.00;84.70;;;;;;5175719;27;20008;-80
2024/04/19 00:25:46;;;;;;;0.63;0.52;;;14.20;84.90;;;;;;5146793;27;20000;-81
2024/04/19 00:28:11;;;;;;;1.23;0.60;;;14.20;84.90;;;;;;5146864;27;20361;-80
2024/04/19 00:30:37;;;;;;;0.95;0.68;;;14.10;84.90;;;;;;5174429;27;20000;-81
2024/04/19 00:33:02;;;;;;;0.95;0.60;;;14.10;84.90;;;;;;5173249;27;20053;-80
2024/04/19 00:35:28;;;;;;;1.50;0.70;;;14.10;85.00;;;;;;5174902;27;20015;-80
2024/04/19 00:37:54;;;;;;;1.38;0.60;;;14.10;84.90;;;;;;5175086;27;20032;-80
2024/04/19 00:40:19;;;;;;;0.80;0.60;;;14.10;84.90;;;;;;5146349;27;20016;-80
2024/04/19 00:42:49;;;;;;;1.05;0.63;;;14.10;85.00;;;;;;5175069;27;20015;-80
2024/04/19 00:45:33;;;;;;;0.75;0.50;;;14.10;85.00;;;;;;5172991;27;20014;-80
2024/04/19 00:48:00;;;;;;;1.00;0.70;;;14.20;85.10;;;;;;5173197;27;20000;-80
2024/04/19 00:50:27;;;;;;;0.63;0.57;;;14.10;85.00;;;;;;5172650;27;20000;-80
2024/04/19 00:52:52;;;;;;;0.73;0.70;;;14.10;84.80;;;;;;5175191;27;20457;-80
2024/04/19 00:55:18;;;;;;;1.15;0.80;;;14.20;84.90;;;;;;5174861;27;20005;-81
2024/04/19 00:57:45;;;;;;;1.30;0.80;;;14.10;84.80;;;;;;5175037;27;20809;-80
2024/04/19 01:00:11;;;;;;;2.10;0.77;;;14.10;84.60;;;;;;5172636;27;20015;-80
2024/04/19 01:02:36;;;;;;;1.25;0.70;;;14.10;84.50;;;;;;5174759;27;20338;-80
2024/04/19 01:05:03;;;;;;;2.28;0.70;;;14.00;84.60;;;;;;5174351;27;20058;-80
2024/04/19 01:07:29;;;;;;;1.40;0.70;;;14.10;84.80;;;;;;5145765;27;20016;-80
2024/04/19 01:09:55;;;;;;;1.58;0.70;;;14.10;85.00;;;;;;5172433;27;20001;-80
2024/04/19 01:12:20;;;;;;;1.05;0.65;;;14.10;85.10;;;;;;5177122;27;20012;-80
2024/04/19 01:14:46;;;;;;;0.90;0.60;;;14.00;84.90;;;;;;5177199;27;20016;-80
2024/04/19 01:17:12;;;;;;;1.42;0.70;;;14.10;85.10;;;;;;5177677;27;20015;-81
2024/04/19 01:19:37;;;;;;;2.13;0.85;;;14.10;85.10;;;;;;5175483;27;20013;-80
2024/04/19 01:22:04;;;;;;;1.30;0.70;;;14.10;85.10;;;;;;5177881;27;20011;-80
2024/04/19 01:24:44;;;;;;;1.42;0.60;;;14.10;85.00;;;;;;5177272;27;20008;-80
2024/04/19 01:27:10;;;;;;;0.73;0.57;;;14.10;84.90;;;;;;5177645;27;20011;-80
2024/04/19 01:29:36;;;;;;;0.93;0.63;;;14.10;85.00;;;;;;5177035;27;20000;-80
2024/04/19 01:32:03;;;;;;;1.00;0.60;;;14.10;85.10;;;;;;5175546;27;19996;-80
2024/04/19 01:34:29;;;;;;;0.88;0.70;;;14.10;85.00;;;;;;5177439;27;20016;-80
2024/04/19 01:36:54;;;;;;;0.95;0.60;;;14.10;85.10;;;;;;5177947;27;20004;-81
2024/04/19 01:39:20;;;;;;;0.95;0.65;;;14.10;85.10;;;;;;5148754;27;20011;-80
2024/04/19 01:41:46;;;;;;;1.17;0.70;;;14.00;85.10;;;;;;5177892;27;20048;-80
2024/04/19 01:44:12;;;;;;;1.20;0.70;;;14.10;85.20;;;;;;5177229;27;20016;-80
2024/04/19 01:46:38;;;;;;;1.15;0.70;;;14.10;85.20;;;;;;5177428;27;20080;-80
2024/04/19 01:49:03;;;;;;;1.33;0.68;;;14.10;85.10;;;;;;5175409;27;20465;-80
2024/04/19 01:51:29;;;;;;;0.60;0.60;;;14.10;85.20;;;;;;5176621;27;20467;-80
2024/04/19 01:53:54;;;;;;;1.05;0.60;;;14.10;85.20;;;;;;5177207;27;20015;-81
2024/04/19 01:56:20;;;;;;;0.60;0.50;;;14.10;85.20;;;;;;5175692;27;20005;-80
2024/04/19 01:58:45;;;;;;;1.05;0.68;;;14.10;85.20;;;;;;5148811;27;20004;-80
2024/04/19 02:01:11;;;;;;;1.05;0.60;;;14.10;85.20;;;;;;5148258;27;20005;-80
2024/04/19 02:03:40;;;;;;;1.65;0.70;;;14.10;85.20;;;;;;5175503;27;20015;-80
2024/04/19 02:06:11;;;;;;;1.13;0.75;;;14.10;85.30;;;;;;5175177;27;20000;-80
2024/04/19 02:08:36;;;;;;;1.02;0.70;;;14.10;85.30;;;;;;5148021;27;20080;-80
2024/04/19 02:11:05;;;;;;;0.77;0.60;;;14.10;85.30;;;;;;5175167;27;20632;-80
2024/04/19 02:13:31;;;;;;;0.77;0.70;;;14.10;85.20;;;;;;5177159;27;20632;-80
2024/04/19 02:15:58;;;;;;;1.90;0.98;;;14.00;85.10;;;;;;5148732;27;20008;-80
2024/04/19 02:18:23;;;;;;;1.77;0.70;;;14.10;85.20;;;;;;5121159;27;20110;-79
2024/04/19 02:20:49;;;;;;;1.63;0.80;;;14.00;85.00;;;;;;5147745;27;20008;-81
2024/04/19 02:23:23;;;;;;;1.13;0.90;;;14.00;84.90;;;;;;5147271;27;20482;-80
2024/04/19 02:25:49;;;;;;;1.27;0.60;;;14.00;85.00;;;;;;5177183;27;20018;-80
2024/04/19 02:31:12;;;;;;;2.53;0.80;;;14.00;84.80;;;;;;5154989;27;19996;-81
2024/04/19 02:33:38;;;;;;;1.40;0.80;;;14.00;84.70;;;;;;5176718;27;20000;-80
2024/04/19 02:36:04;;;;;;;2.13;1.00;;;14.10;85.00;;;;;;5174946;27;19996;-81
2024/04/19 02:38:30;;;;;;;1.80;0.90;;;14.00;85.00;;;;;;5176879;27;20000;-79
2024/04/19 02:40:55;;;;;;;1.50;1.00;;;14.10;85.00;;;;;;5147650;27;20031;-79
2024/04/19 02:43:21;;;;;;;2.10;1.10;;;14.00;85.00;;;;;;5174841;27;20012;-79
2024/04/19 02:45:47;;;;;;;1.48;1.00;;;14.00;84.70;;;;;;5176549;27;19996;-80
2024/04/19 02:48:12;;;;;;;1.80;0.98;;;14.00;84.80;;;;;;5147564;27;20011;-81
2024/04/19 02:50:38;;;;;;;3.53;1.00;;;13.90;84.80;;;;;;5175996;27;20000;-79
2024/04/19 02:53:04;;;;;;;2.83;1.10;;;14.10;85.00;;;;;;5176401;27;20387;-80
2024/04/19 02:55:29;;;;;;;2.33;1.10;;;13.90;84.70;;;;;;5174636;27;20001;-80
2024/04/19 02:57:55;;;;;;;2.60;1.15;;;14.10;84.80;;;;;;5174512;27;20049;-79
2024/04/19 03:00:21;;;;;;;1.83;1.00;;;14.00;84.80;;;;;;5120678;27;20012;-80
2024/04/19 03:02:46;;;;;;;1.67;1.20;;;14.00;84.80;;;;;;5176314;27;20000;-80
2024/04/19 03:05:12;;;;;;;2.33;1.10;;;14.10;84.80;;;;;;5176005;27;20007;-80
2024/04/19 03:07:37;;;;;;;1.50;0.93;;;14.00;84.80;;;;;;5174461;27;20036;-80
2024/04/19 03:10:03;;;;;;;1.05;0.90;;;14.00;84.80;;;;;;5176039;27;20000;-80
2024/04/19 03:12:29;;;;;;;2.28;1.17;;;14.00;84.90;;;;;;5147486;27;20000;-80
2024/04/19 03:14:54;;;;;;;2.15;1.13;;;14.00;85.00;;;;;;5174754;27;20000;-81
2024/04/19 03:17:20;;;;;;;2.13;1.13;;;14.00;85.10;;;;;;5176243;27;20448;-81
2024/04/19 03:19:46;;;;;;;1.50;1.08;;;13.90;85.50;;;;;;5175818;27;19993;-80
2024/04/19 03:22:11;;;;;;;2.25;1.27;;;14.00;85.00;;;;;;5147203;27;20016;-80
2024/04/19 03:24:37;;;;;;;1.92;1.10;;;14.00;85.00;;;;;;5147253;27;20011;-80
2024/04/19 03:27:03;;;;;;;1.05;0.90;;;13.90;85.00;;;;;;5175560;27;20007;-81
2024/04/19 03:29:29;;;;;;;1.77;1.10;;;14.00;85.20;;;;;;5175576;27;20000;-80
2024/04/19 03:31:54;;;;;;;1.70;0.90;;;14.00;85.20;;;;;;5174364;27;20001;-80
2024/04/19 03:34:20;;;;;;;2.45;1.15;;;14.00;85.40;;;;;;5173651;27;20369;-80
2024/04/19 03:36:48;;;;;;;1.63;1.02;;;14.00;85.30;;;;;;5147295;27;20008;-80
2024/04/19 03:39:14;;;;;;;2.17;1.00;;;14.00;85.30;;;;;;5175549;27;20001;-80
2024/04/19 03:41:40;;;;;;;2.35;1.20;;;13.90;85.30;;;;;;5146527;27;20078;-80
2024/04/19 03:46:50;;;;;;;1.42;1.00;;;14.00;85.10;;;;;;5175505;27;20548;-80
2024/04/19 03:49:16;;;;;;;1.48;0.90;;;14.00;85.20;;;;;;5175498;27;20004;-80
2024/04/19 03:51:42;;;;;;;2.17;1.15;;;14.00;85.20;;;;;;5174339;27;20084;-80
2024/04/19 03:54:07;;;;;;;2.58;1.17;;;13.90;85.10;;;;;;5120126;27;20015;-80
2024/04/19 03:56:33;;;;;;;1.60;1.10;;;14.00;85.10;;;;;;5147322;27;20470;-80
2024/04/19 03:58:58;;;;;;;1.67;1.10;;;14.00;85.20;;;;;;5175694;27;20011;-80
2024/04/19 04:01:24;;;;;;;1.65;1.10;;;14.00;85.20;;;;;;5146470;27;20160;-80
2024/04/19 04:03:53;;;;;;;1.33;1.00;;;14.00;85.30;;;;;;5146846;27;20461;-81
2024/04/19 04:06:19;;;;;;;1.10;1.00;;;14.00;85.40;;;;;;5175469;27;20012;-80
2024/04/19 04:08:47;;;;;;;2.20;1.10;;;14.00;85.40;;;;;;5175772;27;20079;-81
2024/04/19 04:11:13;;;;;;;1.77;1.20;;;14.00;85.40;;;;;;5175146;27;20092;-80
2024/04/19 04:13:39;;;;;;;2.70;1.20;;;14.00;85.40;;;;;;5175660;27;20020;-79
2024/04/19 04:16:09;;;;;;;1.65;1.20;;;14.00;85.40;;;;;;5175515;27;20016;-81
2024/04/19 04:18:35;;;;;;;2.33;1.20;;;14.00;85.30;;;;;;5175552;27;20000;-79
2024/04/19 04:21:02;;;;;;;1.88;1.10;;;14.00;85.20;;;;;;5175259;27;20004;-80
2024/04/19 04:23:29;;;;;;;1.50;0.90;;;13.90;85.20;;;;;;5175282;27;20076;-80
2024/04/19 04:25:54;;;;;;;2.20;1.20;;;14.00;85.40;;;;;;5146144;27;20049;-80
2024/04/19 04:28:20;;;;;;;1.65;1.15;;;13.90;85.30;;;;;;5173757;27;20016;-80
2024/04/19 04:30:46;;;;;;;2.15;1.17;;;13.90;85.30;;;;;;5174646;27;20000;-79
2024/04/19 04:33:11;;;;;;;1.17;0.90;;;14.00;85.30;;;;;;5175637;27;20015;-81
2024/04/19 04:35:40;;;;;;;1.48;1.00;;;13.90;85.20;;;;;;5173495;27;20004;-80
2024/04/19 04:38:06;;;;;;;1.60;1.10;;;14.00;85.20;;;;;;5173319;27;20395;-81
2024/04/19 04:40:32;;;;;;;2.28;1.15;;;14.00;85.20;;;;;;5174703;27;20011;-80
2024/04/19 04:43:01;;;;;;;3.60;1.30;;;14.00;85.30;;;;;;5145996;27;20012;-81
2024/04/19 04:45:28;;;;;;;2.10;1.10;;;13.90;85.20;;;;;;5173111;27;20000;-81
2024/04/19 04:47:53;;;;;;;2.58;1.20;;;14.00;85.30;;;;;;5178225;27;20001;-79
2024/04/19 04:50:20;;;;;;;1.55;1.00;;;13.90;85.20;;;;;;5177793;27;20036;-80
2024/04/19 04:52:45;;;;;;;1.35;1.00;;;13.90;85.20;;;;;;5177956;27;20011;-81
2024/04/19 04:55:13;;;;;;;2.13;1.13;;;13.90;85.20;;;;;;5176325;27;20004;-79
2024/04/19 04:57:39;;;;;;;1.52;1.20;;;14.00;85.20;;;;;;5149892;27;20012;-79
2024/04/19 05:00:05;;;;;;;2.03;1.13;;;13.90;85.10;;;;;;5177716;27;20015;-81
2024/04/19 05:02:31;;;;;;;2.10;1.25;;;13.90;85.10;;;;;;5148755;27;20000;-81
2024/04/19 05:04:56;;;;;;;1.45;1.02;;;13.90;85.20;;;;;;5149232;27;20012;-81
2024/04/19 05:07:24;;;;;;;1.38;1.10;;;13.90;85.30;;;;;;5148866;27;20465;-81
2024/04/19 05:09:51;;;;;;;1.70;1.27;;;14.00;85.30;;;;;;5177634;27;20005;-81
2024/04/19 05:12:17;;;;;;;1.65;1.10;;;13.90;85.30;;;;;;5177506;27;20350;-80
2024/04/19 05:14:43;;;;;;;1.30;1.00;;;13.90;85.30;;;;;;5178191;27;20008;-81
2024/04/19 05:17:08;;;;;;;1.52;1.10;;;13.90;85.30;;;;;;5177728;27;20015;-81
2024/04/19 05:19:34;;;;;;;1.75;1.15;;;13.90;85.30;;;;;;5175611;27;20319;-80
2024/04/19 05:22:00;;;;;;;2.35;1.40;;;13.90;85.30;;;;;;5148851;27;20004;-81
2024/04/19 05:24:25;;;;;;;1.20;0.90;;;13.90;85.30;;;;;;5177456;27;20039;-81
2024/04/19 05:26:51;;;;;;;1.45;1.15;;;13.90;85.30;;;;;;5148597;27;20009;-81
2024/04/19 05:29:17;;;;;;;1.83;1.20;;;13.90;85.30;;;;;;5177024;27;20008;-81
2024/04/19 05:31:42;;;;;;;2.20;1.60;;;13.90;85.30;;;;;;5177386;27;20012;-80
2024/04/19 05:34:08;;;;;;;1.45;1.10;;;13.90;85.40;;;;;;5148477;27;20100;-80
2024/04/19 05:36:33;;;;;;;1.52;1.00;;;13.90;85.40;;;;;;5177680;27;20415;-80
2024/04/19 05:38:59;;;;;;;1.70;1.10;;;13.80;85.40;;;;;;5148318;27;20000;-79
2024/04/19 05:41:25;;;;;;;1.38;1.15;;;13.90;85.50;;;;;;5148714;27;20059;-79
2024/04/19 05:43:50;;;;;;;1.90;1.20;;;13.90;85.50;;;;;;5177353;27;20008;-81
2024/04/19 05:46:16;;;;;;;2.50;1.20;;;13.80;85.40;;;;;;5177215;27;20011;-80
2024/04/19 05:48:41;;;;;;;1.35;1.13;;;13.90;85.60;;;;;;5177666;27;20431;-80
2024/04/19 05:51:07;;;;;;;1.60;1.10;;;13.80;85.50;;;;;;5176460;27;20006;-80
2024/04/19 05:53:32;;;;;;;1.83;1.20;;;13.90;85.60;;;;;;5148013;27;20539;-82
2024/04/19 05:55:58;;;;;;;1.40;1.10;;;13.90;85.60;;;;;;5177044;27;19997;-78
2024/04/19 05:58:24;;;;;;;5.70;1.40;;;13.90;85.50;;;;;;5177055;27;20015;-81
2024/04/19 06:00:50;;;;;;;4.20;1.35;;;13.90;85.50;;;;;;5177029;27;20080;-80
2024/04/19 06:03:15;;;;;;;2.17;1.27;;;13.90;85.40;;;;;;5148597;27;20011;-79
2024/04/19 06:05:43;;;;;;;3.75;1.63;;;13.80;85.40;;;;;;5177069;27;20456;-80
2024/04/19 06:08:11;;;;;;;2.92;1.30;;;13.90;85.50;;;;;;5174981;27;20016;-79
2024/04/19 06:10:36;;;;;;;3.63;1.20;;;13.90;85.50;;;;;;5176417;27;20004;-80
2024/04/19 06:13:02;;;;;;;3.83;1.75;;;13.90;85.50;;;;;;5176982;27;20463;-80
2024/04/19 06:15:28;;;;;;;4.22;1.23;;;13.90;85.50;;;;;;5177192;27;20358;-80
2024/04/19 06:17:53;;;;;;;2.10;1.20;;;13.90;85.60;;;;;;5148486;27;20008;-80
2024/04/19 06:20:19;;;;;;;3.60;1.40;;;13.90;85.60;;;;;;5174981;27;20004;-81
2024/04/19 06:22:44;;;;;;;4.32;1.60;;;13.90;85.60;;;;;;5148083;27;20076;-81
2024/04/19 06:25:10;;;;;;;3.30;1.40;;;13.90;85.60;;;;;;5176557;27;20004;-80
2024/04/19 06:27:36;;;;;;;4.25;1.20;;;13.80;85.60;;;;;;5177147;27;20004;-80
2024/04/19 06:30:01;;;;;;;1.85;1.17;;;13.90;85.70;;;;;;5177120;27;20005;-80
2024/04/19 06:32:27;;;;;;;4.25;1.30;;;13.90;85.70;;;;;;5176960;27;20020;-79
2024/04/19 06:34:52;;;;;;;3.63;1.30;;;13.90;85.70;;;;;;5176772;27;20004;-79
2024/04/19 06:37:18;;;;;;;3.30;1.30;;;13.90;85.70;;;;;;5148294;27;20469;-79
2024/04/19 06:39:44;;;;;;;3.30;1.20;;;13.90;85.70;;;;;;5147841;27;20508;-80
2024/04/19 06:42:09;;;;;;;1.90;1.20;;;13.90;85.70;;;;;;5148066;27;20012;-79
2024/04/19 06:44:35;;;;;;;2.27;1.30;;;13.80;85.70;;;;;;5176519;27;20012;-79
2024/04/19 06:47:00;;;;;;;1.40;1.00;;;13.90;85.70;;;;;;5147966;27;20422;-79
2024/04/19 06:49:26;;;;;;;2.10;1.17;;;13.90;85.70;;;;;;5176079;27;20170;-79
2024/04/19 06:51:52;;;;;;;2.90;1.30;;;13.90;85.70;;;;;;5176234;27;20015;-80
2024/04/19 06:54:17;;;;;;;2.35;1.10;;;13.90;85.80;;;;;;5176798;27;20016;-79
2024/04/19 06:56:43;;;;;;;2.72;1.27;;;13.80;85.70;;;;;;5148239;27;20008;-78
2024/04/19 06:59:09;;;;;;;2.80;1.27;;;13.90;85.80;;;;;;5147860;27;20351;-79
2024/04/19 07:01:35;;;;;;;1.75;1.20;;;13.90;85.80;;;;;;5147376;27;20033;-78
2024/04/19 07:04:02;;;;;;;2.65;1.30;;;13.90;85.80;;;;;;5176350;27;20001;-78
2024/04/19 07:06:28;;;;;;;2.25;1.50;;;13.90;85.80;;;;;;5176202;27;20004;-79
2024/04/19 07:08:53;;;;;;;2.85;1.00;;;13.90;85.80;;;;;;5146937;27;20000;-80
2024/04/19 07:11:19;;;;;;;1.58;1.10;;;13.90;85.80;;;;;;5175824;27;20016;-80
2024/04/19 07:13:47;;;;;;;2.58;1.08;;;13.90;85.80;;;;;;5176290;27;20003;-79
2024/04/19 07:16:14;;;;;;;2.08;1.00;;;13.80;85.80;;;;;;5176289;27;20011;-80
2024/04/19 07:18:39;;;;;;;1.85;1.17;;;13.80;85.80;;;;;;5176342;27;20016;-79
2024/04/19 07:21:05;;;;;;;2.08;1.15;;;13.90;85.80;;;;;;5174103;27;20052;-79
2024/04/19 07:23:31;;;;;;;2.55;1.15;;;13.80;85.80;;;;;;5176092;27;20011;-80
2024/04/19 07:25:56;;;;;;;1.33;1.10;;;13.90;85.90;;;;;;5175698;27;20472;-80
2024/04/19 07:28:22;;;;;;;2.40;1.10;;;13.90;85.90;;;;;;5176113;27;20016;-80
2024/04/19 07:30:48;;;;;;;2.83;1.20;;;13.90;85.90;;;;;;5173819;27;20521;-78
2024/04/19 07:33:14;;;;;;;1.80;1.20;;;13.80;85.80;;;;;;5175840;27;20000;-80
2024/04/19 07:35:39;;;;;;;2.20;1.15;;;13.70;85.70;;;;;;5175850;27;20076;-79
2024/04/19 07:38:05;;;;;;;2.55;1.17;;;13.90;85.80;;;;;;5176198;27;20474;-80
2024/04/19 07:40:33;;;;;;;2.90;1.20;;;13.90;85.80;;;;;;5176038;27;20090;-79
2024/04/19 07:42:58;;;;;;;3.25;1.10;;;13.80;85.80;;;;;;5175833;27;20004;-80
2024/04/19 07:45:24;;;;;;;1.55;1.08;;;13.80;85.80;;;;;;5176190;27;20332;-81
2024/04/19 07:47:50;;;;;;;2.13;1.10;;;13.90;85.80;;;;;;5176261;27;20023;-79
2024/04/19 07:50:16;;;;;;;1.77;1.10;;;13.90;85.80;;;;;;5175731;27;20014;-79
2024/04/19 07:52:42;;;;;;;2.45;1.10;;;13.90;85.80;;;;;;5175801;27;20532;-80
2024/04/19 07:55:08;;;;;;;1.35;1.10;;;13.90;85.80;;;;;;5173751;27;20004;-77
2024/04/19 07:57:34;;;;;;;1.92;1.13;;;13.90;85.80;;;;;;5175586;27;20079;-80
2024/04/19 08:00:01;;;;;;;1.23;1.00;;;13.80;85.80;;;;;;5175398;27;20008;-80
2024/04/19 08:02:27;;;;;;;2.15;1.00;;;13.80;85.80;;;;;;5174127;27;20000;-79
2024/04/19 08:04:52;;;;;;;1.10;1.00;;;13.90;85.90;;;;;;5146846;27;20058;-79
2024/04/19 08:07:21;;;;;;;1.98;1.10;;;13.90;85.80;;;;;;5175586;27;20004;-79
2024/04/19 08:09:46;;;;;;;2.28;1.00;;;13.90;85.80;;;;;;5175663;27;20423;-80
2024/04/19 08:12:12;;;;;;;2.95;0.98;;;13.90;85.80;;;;;;5176095;27;20015;-80
2024/04/19 08:14:37;;;;;;;1.85;1.02;;;13.90;85.90;;;;;;5175586;27;19997;-80
2024/04/19 08:17:03;;;;;;;2.35;1.35;;;13.90;85.80;;;;;;5175412;27;20004;-80
2024/04/19 08:19:30;;;;;;;1.42;1.00;;;13.90;85.80;;;;;;5146343;27;20004;-80
2024/04/19 08:21:55;;;;;;;1.83;1.10;;;13.90;85.80;;;;;;5174712;27;20064;-78
2024/04/19 08:24:21;;;;;;;1.63;1.00;;;13.90;85.80;;;;;;5175929;27;20000;-80
2024/04/19 08:26:46;;;;;;;1.63;0.90;;;13.90;85.70;;;;;;5175249;27;20024;-80
2024/04/19 08:29:12;;;;;;;1.90;0.90;;;13.90;85.70;;;;;;5175917;27;20004;-80
2024/04/19 08:31:41;;;;;;;1.48;1.02;;;13.90;85.60;;;;;;5175103;27;20458;-80
2024/04/19 08:34:06;;;;;;;1.20;0.90;;;14.00;85.80;;;;;;5175716;27;20480;-80
2024/04/19 08:36:32;;;;;;;1.10;0.98;;;14.00;85.70;;;;;;5175314;27;20001;-80
2024/04/19 08:38:57;;;;;;;1.35;0.90;;;14.00;85.70;;;;;;5175157;27;20083;-80
2024/04/19 08:41:29;;;;;;;1.27;1.00;;;13.90;85.60;;;;;;5146259;27;20004;-80
2024/04/19 08:43:59;;;;;;;1.67;1.00;;;14.00;85.70;;;;;;5175334;27;20012;-79
2024/04/19 08:46:27;;;;;;;1.23;0.90;;;14.00;85.70;;;;;;5146672;27;20016;-81
2024/04/19 08:48:54;;;;;;;1.92;1.00;;;14.00;85.60;;;;;;5146616;27;20553;-80
2024/04/19 08:51:21;;;;;;;1.35;0.90;;;14.10;85.70;;;;;;5145918;27;20004;-80
2024/04/19 08:53:50;;;;;;;1.52;1.00;;;13.90;85.50;;;;;;5146503;27;20000;-80
2024/04/19 08:56:16;;;;;;;1.90;0.90;;;14.00;85.60;;;;;;5174861;27;20012;-80
2024/04/19 08:58:42;;;;;;;1.13;0.90;;;14.00;85.40;;;;;;5174845;27;20013;-79
2024/04/19 09:01:07;;;;;;;1.27;0.82;;;14.10;85.20;;;;;;5172946;27;20005;-81
2024/04/19 09:03:33;;;;;;;1.52;0.85;;;14.10;85.10;;;;;;5175178;27;20008;-80
2024/04/19 09:05:59;;;;;;;2.15;0.90;;;14.20;84.90;;;;;;5174865;27;20187;-80
2024/04/19 09:08:25;;;;;;;1.20;0.80;;;14.20;84.80;;;;;;5174940;27;20066;-80
2024/04/19 09:10:51;;;;;;;1.42;0.80;;;14.20;84.70;;;;;;5146118;27;20005;-80
2024/04/19 09:13:17;;;;;;;1.55;0.90;;;14.30;84.80;;;;;;5175071;27;20004;-78
2024/04/19 09:15:47;;;;;;;1.20;0.88;;;14.20;84.70;;;;;;5172811;27;20410;-80
2024/04/19 09:18:13;;;;;;;1.00;0.75;;;14.20;84.80;;;;;;5174692;27;20001;-80
2024/04/19 09:20:46;;;;;;;1.92;0.70;;;14.20;84.80;;;;;;5174432;27;20001;-78
2024/04/19 09:23:12;;;;;;;2.15;0.90;;;14.20;85.00;;;;;;5172674;27;20011;-78
2024/04/19 09:25:38;;;;;;;1.02;0.88;;;14.20;85.10;;;;;;5174774;27;20005;-80
2024/04/19 09:28:05;;;;;;;1.02;0.80;;;14.20;85.00;;;;;;5145737;27;20054;-80
2024/04/19 09:30:31;;;;;;;2.13;0.90;;;14.20;84.80;;;;;;5174421;27;20040;-80
2024/04/19 09:32:57;;;;;;;1.55;0.80;;;14.30;84.70;;;;;;5147666;27;20004;-81
2024/04/19 09:35:30;;;;;;;1.10;0.80;;;14.30;84.70;;;;;;5177607;27;20008;-80
2024/04/19 09:37:56;;;;;;;1.52;0.80;;;14.30;84.70;;;;;;5178263;27;20000;-80
2024/04/19 09:40:25;;;;;;;1.40;0.90;;;14.30;84.60;;;;;;5148576;27;20001;-80
2024/04/19 09:42:51;;;;;;;2.08;1.15;;;14.30;84.60;;;;;;5175873;27;20032;-80
2024/04/19 09:45:20;;;;;;;1.02;0.80;;;14.30;84.50;;;;;;5177386;27;20000;-80
2024/04/19 09:47:51;;;;;;;1.88;0.88;;;14.20;84.50;;;;;;5177551;27;20079;-80
2024/04/19 09:50:19;;;;;;;0.88;0.80;;;14.30;84.60;;;;;;5177003;27;20014;-79
2024/04/19 09:52:49;;;;;;;1.55;0.85;;;14.30;84.80;;;;;;5148500;27;20015;-80
2024/04/19 09:55:21;;;;;;;1.55;0.80;;;14.30;84.80;;;;;;5177094;27;20052;-80
2024/04/19 09:57:48;;;;;;;0.68;0.65;;;14.20;84.80;;;;;;5175917;27;20023;-80
2024/04/19 10:00:14;;;;;;;1.00;0.70;;;14.20;84.80;;;;;;5176922;27;20015;-80
2024/04/19 10:02:42;;;;;;;1.75;0.93;;;14.30;84.80;;;;;;5177701;27;20001;-80
2024/04/19 10:05:09;;;;;;;1.42;0.90;;;14.20;84.80;;;;;;5177072;27;20004;-78
2024/04/19 10:07:37;;;;;;;1.42;0.80;;;14.20;84.80;;;;;;5177612;27;20896;-79
2024/04/19 10:10:04;;;;;;;2.33;0.90;;;14.20;85.00;;;;;;5175455;27;20470;-80
2024/04/19 10:12:32;;;;;;;1.20;0.80;;;14.20;85.10;;;;;;5177298;27;20007;-79
2024/04/19 10:14:57;;;;;;;0.80;0.70;;;14.10;84.90;;;;;;5176923;27;20040;-81
2024/04/19 10:17:24;;;;;;;1.15;0.70;;;14.20;84.70;;;;;;5177172;27;20060;-78
2024/04/19 10:19:50;;;;;;;1.88;0.88;;;14.30;84.70;;;;;;5175749;27;20012;-79
2024/04/19 10:22:23;;;;;;;1.33;0.70;;;14.30;84.60;;;;;;5148518;27;20076;-81
2024/04/19 10:25:05;;;;;;;1.33;0.80;;;14.30;84.50;;;;;;5177682;27;20012;-79
2024/04/19 10:27:33;;;;;;;0.95;0.70;;;14.40;84.40;;;;;;5122193;27;20013;-79
2024/04/19 10:29:59;;;;;;;2.13;0.75;;;14.40;84.40;;;;;;5177481;27;20338;-80
2024/04/19 10:32:24;;;;;;;1.35;0.80;;;14.40;84.30;;;;;;5177382;27;20358;-81
2024/04/19 10:34:53;;;;;;;2.40;0.70;;;14.40;84.20;;;;;;5177692;27;20004;-80
2024/04/19 10:37:20;;;;;;;1.98;0.70;;;14.50;84.30;;;;;;5177866;27;20011;-79
2024/04/19 10:39:46;;;;;;;1.38;0.73;;;14.40;84.20;;;;;;5148798;27;20008;-80
2024/04/19 10:42:11;;;;;;;2.30;0.70;;;14.50;84.20;;;;;;5177767;27;20004;-79
2024/04/19 10:44:41;;;;;;;1.58;0.85;;;14.50;84.10;;;;;;5176147;27;20395;-79
2024/04/19 10:47:06;;;;;;;1.02;0.70;;;14.50;84.10;;;;;;5177680;27;20094;-80
2024/04/19 10:49:32;;;;;;;1.55;0.60;;;14.50;84.20;;;;;;5177089;27;20000;-80
2024/04/19 10:51:59;;;;;;;0.77;0.70;;;14.40;84.10;;;;;;5177216;27;20004;-79
2024/04/19 10:54:25;;;;;;;1.00;0.70;;;14.50;84.20;;;;;;5177066;27;20004;-80
2024/04/19 10:56:52;;;;;;;1.45;0.73;;;14.50;84.20;;;;;;5175449;27;20004;-80
2024/04/19 10:59:17;;;;;;;1.48;0.80;;;14.50;84.20;;;;;;5176696;27;20072;-80
2024/04/19 11:01:45;;;;;;;0.98;0.80;;;14.50;84.20;;;;;;5176304;27;20012;-80
2024/04/19 11:04:11;;;;;;;0.93;0.70;;;14.40;84.30;;;;;;5176570;27;20010;-80
2024/04/19 11:06:37;;;;;;;1.30;0.65;;;14.40;84.40;;;;;;5177124;27;20001;-80
2024/04/19 11:09:03;;;;;;;1.17;0.63;;;14.40;84.50;;;;;;5176859;27;20011;-80
2024/04/19 11:11:37;;;;;;;1.80;0.70;;;14.40;84.50;;;;;;5177004;27;20006;-80
2024/04/19 11:14:06;;;;;;;1.08;0.75;;;14.40;84.50;;;;;;5176996;27;19997;-82
2024/04/19 11:16:32;;;;;;;1.30;0.70;;;14.40;84.60;;;;;;5176901;27;20000;-80
2024/04/19 11:18:57;;;;;;;1.33;0.70;;;14.30;84.50;;;;;;5174868;27;20044;-80
2024/04/19 11:21:23;;;;;;;0.77;0.60;;;14.40;84.50;;;;;;5147717;27;20024;-80
2024/04/19 11:23:50;;;;;;;1.13;0.70;;;14.40;84.50;;;;;;5176659;27;20013;-79
2024/04/19 11:26:19;;;;;;;1.27;0.60;;;14.40;84.30;;;;;;5176399;27;20117;-78
2024/04/19 11:28:48;;;;;;;1.40;0.70;;;14.40;84.30;;;;;;5176026;27;20447;-80
2024/04/19 11:31:15;;;;;;;1.10;0.70;;;14.40;84.30;;;;;;5176126;27;20346;-78
2024/04/19 11:33:40;;;;;;;1.27;0.70;;;14.40;84.30;;;;;;5176459;27;20101;-80
2024/04/19 11:36:12;;;;;;;1.17;0.60;;;14.40;84.40;;;;;;5147589;27;20000;-80
2024/04/19 11:38:38;;;;;;;0.60;0.60;;;14.40;84.50;;;;;;5147529;27;20001;-81
2024/04/19 11:41:04;;;;;;;1.25;0.60;;;14.40;84.60;;;;;;5175895;27;20020;-80
2024/04/19 11:43:32;;;;;;;1.02;0.60;;;14.40;84.70;;;;;;5175789;27;20009;-79
2024/04/19 11:45:58;;;;;;;0.77;0.52;;;14.30;84.70;;;;;;5176525;27;20005;-79
2024/04/19 11:48:28;;;;;;;0.68;0.57;;;14.30;84.80;;;;;;5147171;27;20052;-80
2024/04/19 11:50:54;;;;;;;1.48;0.60;;;14.30;84.90;;;;;;5175993;27;20012;-80
2024/04/19 11:53:20;;;;;;;0.57;0.57;;;14.30;84.90;;;;;;5175886;27;20011;-81
2024/04/19 11:55:50;;;;;;;0.68;0.50;;;14.30;85.00;;;;;;5146945;27;20004;-80
2024/04/19 11:58:16;;;;;;;0.77;0.50;;;14.30;85.00;;;;;;5175945;27;20012;-79
2024/04/19 12:00:42;;;;;;;0.73;0.60;;;14.30;85.10;;;;;;5176142;27;20004;-78
2024/04/19 12:03:08;;;;;;;0.65;0.50;;;14.30;85.20;;;;;;5176083;27;20028;-79
2024/04/19 12:05:33;;;;;;;0.70;0.60;;;14.30;85.20;;;;;;5176055;27;20011;-80
2024/04/19 12:08:00;;;;;;;1.35;0.60;;;14.30;85.30;;;;;;5176081;27;20063;-79
2024/04/19 12:10:26;;;;;;;1.35;0.60;;;14.30;85.40;;;;;;5175476;27;20026;-80
2024/04/19 12:12:51;;;;;;;0.77;0.60;;;14.20;85.30;;;;;;5146928;27;20225;-80
2024/04/19 12:15:17;;;;;;;0.93;0.65;;;14.20;85.40;;;;;;5175740;27;20015;-81
2024/04/19 12:17:43;;;;;;;0.60;0.60;;;14.20;85.30;;;;;;5175427;27;20529;-80
2024/04/19 12:20:09;;;;;;;0.65;0.60;;;14.20;85.40;;;;;;5175329;27;20355;-80
2024/04/19 12:22:35;;;;;;;0.77;0.50;;;14.20;85.40;;;;;;5175348;27;20072;-80
2024/04/19 12:25:00;;;;;;;1.05;0.52;;;14.20;85.40;;;;;;5175689;27;20004;-79
2024/04/19 12:27:26;;;;;;;1.52;0.70;;;14.20;85.40;;;;;;5175390;27;20011;-80
2024/04/19 12:29:51;;;;;;;0.80;0.60;;;14.20;85.50;;;;;;5175309;27;20015;-80
2024/04/19 12:32:17;;;;;;;0.90;0.70;;;14.20;85.50;;;;;;5146944;27;20016;-80
2024/04/19 12:34:44;;;;;;;0.90;0.55;;;14.10;85.50;;;;;;5175653;27;20000;-80
2024/04/19 12:37:10;;;;;;;1.20;0.52;;;14.20;85.60;;;;;;5175016;27;20056;-80
2024/04/19 12:39:35;;;;;;;1.17;0.60;;;14.10;85.60;;;;;;5175294;27;20135;-79
2024/04/19 12:42:03;;;;;;;0.95;0.60;;;14.20;85.70;;;;;;5175107;27;20343;-80
2024/04/19 12:44:29;;;;;;;1.75;0.77;;;14.10;85.70;;;;;;5175149;27;20005;-80
2024/04/19 12:46:54;;;;;;;0.88;0.60;;;14.20;85.70;;;;;;5175338;27;20020;-78
2024/04/19 12:49:21;;;;;;;0.70;0.50;;;14.10;85.70;;;;;;5175335;27;20004;-79